sensor_id;sensor_type;location;lat;lon;timestamp;P1;durP1;ratioP1;P2;durP2;ratioP2
6823;SDS011;58633;49.470;11.004;2022-09-21T00:00:49;4.90;;;3.80;;
6823;SDS011;58633;49.470;11.004;2022-09-21T00:03:15;6.25;;;4.22;;
6823;SDS011;58633;49.470;11.004;2022-09-21T00:05:41;4.57;;;3.75;;
6823;SDS011;58633;49.470;11.004;2022-09-21T00:08:08;6.18;;;4.18;;
6823;SDS011;58633;49.470;11.004;2022-09-21T00:10:35;5.65;;;4.22;;
6823;SDS011;58633;49.470;11.004;2022-09-21T00:13:02;6.00;;;4.20;;
6823;SDS011;58633;49.470;11.004;2022-09-21T00:15:29;5.47;;;3.70;;
6823;SDS011;58633;49.470;11.004;2022-09-21T00:17:55;5.80;;;4.35;;
6823;SDS011;58633;49.470;11.004;2022-09-21T00:20:22;6.88;;;4.72;;
6823;SDS011;58633;49.470;11.004;2022-09-21T00:22:49;5.75;;;4.35;;
6823;SDS011;58633;49.470;11.004;2022-09-21T00:25:15;5.35;;;4.60;;
6823;SDS011;58633;49.470;11.004;2022-09-21T00:27:41;8.75;;;4.82;;
6823;SDS011;58633;49.470;11.004;2022-09-21T00:30:07;7.88;;;4.88;;
6823;SDS011;58633;49.470;11.004;2022-09-21T00:32:34;5.45;;;4.20;;
6823;SDS011;58633;49.470;11.004;2022-09-21T00:35:01;5.15;;;4.47;;
6823;SDS011;58633;49.470;11.004;2022-09-21T00:37:28;7.15;;;4.38;;
6823;SDS011;58633;49.470;11.004;2022-09-21T00:39:54;5.20;;;4.07;;
6823;SDS011;58633;49.470;11.004;2022-09-21T00:42:22;7.65;;;4.95;;
6823;SDS011;58633;49.470;11.004;2022-09-21T00:44:48;7.63;;;4.00;;
6823;SDS011;58633;49.470;11.004;2022-09-21T00:47:15;7.05;;;4.10;;
6823;SDS011;58633;49.470;11.004;2022-09-21T00:49:46;6.72;;;4.53;;
6823;SDS011;58633;49.470;11.004;2022-09-21T00:52:14;6.75;;;4.22;;
6823;SDS011;58633;49.470;11.004;2022-09-21T00:54:43;6.05;;;4.25;;
6823;SDS011;58633;49.470;11.004;2022-09-21T00:57:13;6.45;;;4.63;;
6823;SDS011;58633;49.470;11.004;2022-09-21T00:59:40;5.40;;;4.20;;
6823;SDS011;58633;49.470;11.004;2022-09-21T01:02:07;6.53;;;4.63;;
6823;SDS011;58633;49.470;11.004;2022-09-21T01:04:33;8.00;;;4.50;;
6823;SDS011;58633;49.470;11.004;2022-09-21T01:07:01;9.20;;;4.70;;
6823;SDS011;58633;49.470;11.004;2022-09-21T01:09:29;7.10;;;4.38;;
6823;SDS011;58633;49.470;11.004;2022-09-21T01:17:40;5.60;;;3.80;;
6823;SDS011;58633;49.470;11.004;2022-09-21T01:30:45;6.65;;;3.40;;
6823;SDS011;58633;49.470;11.004;2022-09-21T01:33:20;7.27;;;3.83;;
6823;SDS011;58633;49.470;11.004;2022-09-21T01:35:52;3.43;;;3.13;;
6823;SDS011;58633;49.470;11.004;2022-09-21T01:38:25;6.53;;;3.80;;
6823;SDS011;58633;49.470;11.004;2022-09-21T01:40:54;3.53;;;3.03;;
6823;SDS011;58633;49.470;11.004;2022-09-21T01:43:30;5.23;;;3.73;;
6823;SDS011;58633;49.470;11.004;2022-09-21T01:45:59;4.97;;;3.53;;
6823;SDS011;58633;49.470;11.004;2022-09-21T01:48:27;4.37;;;3.50;;
6823;SDS011;58633;49.470;11.004;2022-09-21T01:50:59;4.03;;;3.30;;
6823;SDS011;58633;49.470;11.004;2022-09-21T01:53:29;4.53;;;3.40;;
6823;SDS011;58633;49.470;11.004;2022-09-21T01:56:00;4.17;;;3.30;;
6823;SDS011;58633;49.470;11.004;2022-09-21T01:58:32;5.50;;;3.40;;
6823;SDS011;58633;49.470;11.004;2022-09-21T02:01:02;5.03;;;3.07;;
6823;SDS011;58633;49.470;11.004;2022-09-21T02:03:35;4.17;;;3.17;;
6823;SDS011;58633;49.470;11.004;2022-09-21T02:06:04;6.40;;;3.10;;
6823;SDS011;58633;49.470;11.004;2022-09-21T02:08:30;6.47;;;3.37;;
6823;SDS011;58633;49.470;11.004;2022-09-21T02:10:56;4.17;;;3.30;;
6823;SDS011;58633;49.470;11.004;2022-09-21T02:13:25;3.83;;;3.20;;
6823;SDS011;58633;49.470;11.004;2022-09-21T02:18:33;4.63;;;3.20;;
6823;SDS011;58633;49.470;11.004;2022-09-21T02:21:29;5.97;;;3.27;;
6823;SDS011;58633;49.470;11.004;2022-09-21T02:24:05;6.37;;;3.03;;
6823;SDS011;58633;49.470;11.004;2022-09-21T02:26:43;6.43;;;3.50;;
6823;SDS011;58633;49.470;11.004;2022-09-21T02:31:46;7.27;;;3.63;;
6823;SDS011;58633;49.470;11.004;2022-09-21T02:42:46;9.10;;;5.07;;
6823;SDS011;58633;49.470;11.004;2022-09-21T02:45:17;7.60;;;4.50;;
6823;SDS011;58633;49.470;11.004;2022-09-21T02:47:48;8.80;;;5.10;;
6823;SDS011;58633;49.470;11.004;2022-09-21T02:53:24;11.27;;;4.57;;
6823;SDS011;58633;49.470;11.004;2022-09-21T02:55:57;11.63;;;4.90;;
6823;SDS011;58633;49.470;11.004;2022-09-21T02:58:28;10.03;;;5.33;;
6823;SDS011;58633;49.470;11.004;2022-09-21T03:00:55;14.03;;;5.70;;
6823;SDS011;58633;49.470;11.004;2022-09-21T03:03:23;19.87;;;6.23;;
6823;SDS011;58633;49.470;11.004;2022-09-21T03:05:51;26.57;;;7.13;;
6823;SDS011;58633;49.470;11.004;2022-09-21T03:08:18;69.70;;;9.27;;
6823;SDS011;58633;49.470;11.004;2022-09-21T03:10:44;23.77;;;7.30;;
6823;SDS011;58633;49.470;11.004;2022-09-21T03:13:10;25.43;;;7.37;;
6823;SDS011;58633;49.470;11.004;2022-09-21T03:15:36;20.03;;;6.53;;
6823;SDS011;58633;49.470;11.004;2022-09-21T03:18:03;15.60;;;6.37;;
6823;SDS011;58633;49.470;11.004;2022-09-21T03:20:31;12.93;;;5.60;;
6823;SDS011;58633;49.470;11.004;2022-09-21T03:22:57;13.43;;;5.23;;
6823;SDS011;58633;49.470;11.004;2022-09-21T03:25:23;14.27;;;5.43;;
6823;SDS011;58633;49.470;11.004;2022-09-21T03:27:49;10.13;;;4.90;;
6823;SDS011;58633;49.470;11.004;2022-09-21T03:30:18;11.27;;;5.10;;
6823;SDS011;58633;49.470;11.004;2022-09-21T03:32:45;9.00;;;4.53;;
6823;SDS011;58633;49.470;11.004;2022-09-21T03:35:12;8.30;;;4.17;;
6823;SDS011;58633;49.470;11.004;2022-09-21T03:37:38;12.97;;;3.77;;
6823;SDS011;58633;49.470;11.004;2022-09-21T03:40:04;8.43;;;4.17;;
6823;SDS011;58633;49.470;11.004;2022-09-21T03:42:30;8.60;;;3.57;;
6823;SDS011;58633;49.470;11.004;2022-09-21T03:44:56;8.63;;;4.03;;
6823;SDS011;58633;49.470;11.004;2022-09-21T03:47:22;6.63;;;3.63;;
6823;SDS011;58633;49.470;11.004;2022-09-21T03:49:48;13.37;;;4.40;;
6823;SDS011;58633;49.470;11.004;2022-09-21T03:52:14;6.50;;;3.80;;
6823;SDS011;58633;49.470;11.004;2022-09-21T03:54:39;16.13;;;5.80;;
6823;SDS011;58633;49.470;11.004;2022-09-21T03:57:05;11.87;;;3.80;;
6823;SDS011;58633;49.470;11.004;2022-09-21T03:59:32;9.20;;;4.43;;
6823;SDS011;58633;49.470;11.004;2022-09-21T04:01:59;5.53;;;3.60;;
6823;SDS011;58633;49.470;11.004;2022-09-21T04:04:25;11.83;;;3.97;;
6823;SDS011;58633;49.470;11.004;2022-09-21T04:06:50;5.83;;;4.10;;
6823;SDS011;58633;49.470;11.004;2022-09-21T04:09:16;8.30;;;4.43;;
6823;SDS011;58633;49.470;11.004;2022-09-21T04:11:43;10.03;;;4.10;;
6823;SDS011;58633;49.470;11.004;2022-09-21T04:14:12;7.23;;;4.50;;
6823;SDS011;58633;49.470;11.004;2022-09-21T04:16:38;18.90;;;4.50;;
6823;SDS011;58633;49.470;11.004;2022-09-21T04:19:03;5.97;;;3.77;;
6823;SDS011;58633;49.470;11.004;2022-09-21T04:21:30;7.63;;;4.67;;
6823;SDS011;58633;49.470;11.004;2022-09-21T04:23:57;6.80;;;3.97;;
6823;SDS011;58633;49.470;11.004;2022-09-21T04:26:26;7.63;;;4.03;;
6823;SDS011;58633;49.470;11.004;2022-09-21T04:28:55;8.17;;;3.93;;
6823;SDS011;58633;49.470;11.004;2022-09-21T04:31:22;8.80;;;4.30;;
6823;SDS011;58633;49.470;11.004;2022-09-21T04:33:51;8.37;;;4.40;;
6823;SDS011;58633;49.470;11.004;2022-09-21T04:36:18;5.47;;;4.10;;
6823;SDS011;58633;49.470;11.004;2022-09-21T04:38:48;7.10;;;4.50;;
6823;SDS011;58633;49.470;11.004;2022-09-21T04:41:14;6.77;;;4.67;;
6823;SDS011;58633;49.470;11.004;2022-09-21T04:43:40;10.50;;;5.00;;
6823;SDS011;58633;49.470;11.004;2022-09-21T04:46:08;9.60;;;5.20;;
6823;SDS011;58633;49.470;11.004;2022-09-21T04:48:35;10.50;;;4.90;;
6823;SDS011;58633;49.470;11.004;2022-09-21T04:51:01;7.67;;;4.97;;
6823;SDS011;58633;49.470;11.004;2022-09-21T04:53:28;9.77;;;4.70;;
6823;SDS011;58633;49.470;11.004;2022-09-21T04:55:54;7.30;;;4.50;;
6823;SDS011;58633;49.470;11.004;2022-09-21T04:58:21;5.90;;;3.80;;
6823;SDS011;58633;49.470;11.004;2022-09-21T05:00:48;5.43;;;4.00;;
6823;SDS011;58633;49.470;11.004;2022-09-21T05:03:15;25.57;;;4.10;;
6823;SDS011;58633;49.470;11.004;2022-09-21T05:05:45;6.60;;;4.03;;
6823;SDS011;58633;49.470;11.004;2022-09-21T05:08:15;8.97;;;4.00;;
6823;SDS011;58633;49.470;11.004;2022-09-21T05:10:41;4.73;;;3.90;;
6823;SDS011;58633;49.470;11.004;2022-09-21T05:13:07;6.27;;;3.97;;
6823;SDS011;58633;49.470;11.004;2022-09-21T05:15:33;5.90;;;4.40;;
6823;SDS011;58633;49.470;11.004;2022-09-21T05:17:59;10.77;;;3.60;;
6823;SDS011;58633;49.470;11.004;2022-09-21T05:20:24;7.20;;;4.20;;
6823;SDS011;58633;49.470;11.004;2022-09-21T05:22:50;6.83;;;4.43;;
6823;SDS011;58633;49.470;11.004;2022-09-21T05:25:16;7.57;;;4.57;;
6823;SDS011;58633;49.470;11.004;2022-09-21T05:27:41;6.33;;;4.43;;
6823;SDS011;58633;49.470;11.004;2022-09-21T05:30:07;5.50;;;4.33;;
6823;SDS011;58633;49.470;11.004;2022-09-21T05:32:40;7.57;;;4.57;;
6823;SDS011;58633;49.470;11.004;2022-09-21T05:35:15;6.27;;;4.17;;
6823;SDS011;58633;49.470;11.004;2022-09-21T05:37:56;8.37;;;4.77;;
6823;SDS011;58633;49.470;11.004;2022-09-21T05:40:27;7.50;;;4.57;;
6823;SDS011;58633;49.470;11.004;2022-09-21T05:42:53;10.30;;;5.97;;
6823;SDS011;58633;49.470;11.004;2022-09-21T05:45:19;12.10;;;4.47;;
6823;SDS011;58633;49.470;11.004;2022-09-21T05:53:56;26.23;;;6.90;;
6823;SDS011;58633;49.470;11.004;2022-09-21T05:59:31;12.13;;;4.50;;
6823;SDS011;58633;49.470;11.004;2022-09-21T06:04:43;7.47;;;4.63;;
6823;SDS011;58633;49.470;11.004;2022-09-21T06:07:09;10.30;;;5.13;;
6823;SDS011;58633;49.470;11.004;2022-09-21T06:09:35;23.47;;;5.80;;
6823;SDS011;58633;49.470;11.004;2022-09-21T06:12:01;8.77;;;4.77;;
6823;SDS011;58633;49.470;11.004;2022-09-21T06:14:27;9.20;;;5.10;;
6823;SDS011;58633;49.470;11.004;2022-09-21T06:16:53;12.00;;;5.73;;
6823;SDS011;58633;49.470;11.004;2022-09-21T06:19:19;12.17;;;5.63;;
6823;SDS011;58633;49.470;11.004;2022-09-21T06:21:44;12.23;;;5.90;;
6823;SDS011;58633;49.470;11.004;2022-09-21T06:24:10;14.00;;;5.60;;
6823;SDS011;58633;49.470;11.004;2022-09-21T06:26:36;13.10;;;6.00;;
6823;SDS011;58633;49.470;11.004;2022-09-21T06:29:02;12.63;;;5.60;;
6823;SDS011;58633;49.470;11.004;2022-09-21T06:31:28;9.03;;;5.33;;
6823;SDS011;58633;49.470;11.004;2022-09-21T06:33:54;13.37;;;6.47;;
6823;SDS011;58633;49.470;11.004;2022-09-21T06:36:20;12.87;;;6.40;;
6823;SDS011;58633;49.470;11.004;2022-09-21T06:38:45;12.07;;;6.03;;
6823;SDS011;58633;49.470;11.004;2022-09-21T06:41:11;13.27;;;6.77;;
6823;SDS011;58633;49.470;11.004;2022-09-21T06:43:37;17.53;;;6.73;;
6823;SDS011;58633;49.470;11.004;2022-09-21T06:46:02;18.03;;;7.00;;
6823;SDS011;58633;49.470;11.004;2022-09-21T06:48:29;13.50;;;7.10;;
6823;SDS011;58633;49.470;11.004;2022-09-21T06:51:00;13.70;;;7.30;;
6823;SDS011;58633;49.470;11.004;2022-09-21T06:53:28;16.07;;;7.53;;
6823;SDS011;58633;49.470;11.004;2022-09-21T06:56:02;54.93;;;9.27;;
6823;SDS011;58633;49.470;11.004;2022-09-21T06:58:29;19.90;;;8.43;;
6823;SDS011;58633;49.470;11.004;2022-09-21T07:00:55;23.97;;;8.90;;
6823;SDS011;58633;49.470;11.004;2022-09-21T07:03:21;16.03;;;8.33;;
6823;SDS011;58633;49.470;11.004;2022-09-21T07:05:47;32.27;;;9.00;;
6823;SDS011;58633;49.470;11.004;2022-09-21T07:08:13;16.93;;;8.10;;
6823;SDS011;58633;49.470;11.004;2022-09-21T07:10:39;29.23;;;8.97;;
6823;SDS011;58633;49.470;11.004;2022-09-21T07:13:05;19.50;;;8.40;;
6823;SDS011;58633;49.470;11.004;2022-09-21T07:15:33;17.20;;;9.00;;
6823;SDS011;58633;49.470;11.004;2022-09-21T07:17:59;21.87;;;10.03;;
6823;SDS011;58633;49.470;11.004;2022-09-21T07:20:25;19.63;;;9.90;;
6823;SDS011;58633;49.470;11.004;2022-09-21T07:22:51;28.10;;;10.57;;
6823;SDS011;58633;49.470;11.004;2022-09-21T07:25:17;29.17;;;11.60;;
6823;SDS011;58633;49.470;11.004;2022-09-21T07:27:43;23.70;;;10.17;;
6823;SDS011;58633;49.470;11.004;2022-09-21T07:30:09;26.70;;;10.70;;
6823;SDS011;58633;49.470;11.004;2022-09-21T07:32:35;26.07;;;11.20;;
6823;SDS011;58633;49.470;11.004;2022-09-21T07:35:01;19.57;;;9.40;;
6823;SDS011;58633;49.470;11.004;2022-09-21T07:37:27;16.27;;;8.10;;
6823;SDS011;58633;49.470;11.004;2022-09-21T07:39:53;12.20;;;7.23;;
6823;SDS011;58633;49.470;11.004;2022-09-21T07:42:19;14.77;;;7.17;;
6823;SDS011;58633;49.470;11.004;2022-09-21T07:44:46;17.07;;;8.30;;
6823;SDS011;58633;49.470;11.004;2022-09-21T07:47:12;15.57;;;7.90;;
6823;SDS011;58633;49.470;11.004;2022-09-21T07:49:38;15.20;;;7.93;;
6823;SDS011;58633;49.470;11.004;2022-09-21T07:52:05;14.87;;;8.03;;
6823;SDS011;58633;49.470;11.004;2022-09-21T07:54:32;14.87;;;8.27;;
6823;SDS011;58633;49.470;11.004;2022-09-21T07:56:58;14.35;;;7.75;;
6823;SDS011;58633;49.470;11.004;2022-09-21T07:59:44;14.67;;;8.33;;
6823;SDS011;58633;49.470;11.004;2022-09-21T08:02:10;15.38;;;8.25;;
6823;SDS011;58633;49.470;11.004;2022-09-21T08:04:35;14.07;;;7.67;;
6823;SDS011;58633;49.470;11.004;2022-09-21T08:07:02;12.63;;;7.33;;
6823;SDS011;58633;49.470;11.004;2022-09-21T08:09:27;11.80;;;7.07;;
6823;SDS011;58633;49.470;11.004;2022-09-21T08:11:53;12.98;;;6.93;;
6823;SDS011;58633;49.470;11.004;2022-09-21T08:14:19;13.03;;;7.37;;
6823;SDS011;58633;49.470;11.004;2022-09-21T08:16:45;14.30;;;7.97;;
6823;SDS011;58633;49.470;11.004;2022-09-21T08:19:12;12.77;;;7.83;;
6823;SDS011;58633;49.470;11.004;2022-09-21T08:21:38;13.73;;;7.63;;
6823;SDS011;58633;49.470;11.004;2022-09-21T08:24:04;16.42;;;8.52;;
6823;SDS011;58633;49.470;11.004;2022-09-21T08:26:30;16.80;;;8.35;;
6823;SDS011;58633;49.470;11.004;2022-09-21T08:28:57;14.27;;;8.70;;
6823;SDS011;58633;49.470;11.004;2022-09-21T08:31:23;17.52;;;8.80;;
6823;SDS011;58633;49.470;11.004;2022-09-21T08:33:49;20.25;;;8.23;;
6823;SDS011;58633;49.470;11.004;2022-09-21T08:36:15;13.45;;;7.93;;
6823;SDS011;58633;49.470;11.004;2022-09-21T08:38:41;14.50;;;8.50;;
6823;SDS011;58633;49.470;11.004;2022-09-21T08:43:49;12.18;;;8.02;;
6823;SDS011;58633;49.470;11.004;2022-09-21T08:46:21;15.32;;;8.32;;
6823;SDS011;58633;49.470;11.004;2022-09-21T08:48:52;14.38;;;7.85;;
6823;SDS011;58633;49.470;11.004;2022-09-21T08:51:23;16.15;;;9.32;;
6823;SDS011;58633;49.470;11.004;2022-09-21T08:53:52;17.08;;;9.27;;
6823;SDS011;58633;49.470;11.004;2022-09-21T08:56:22;17.42;;;9.45;;
6823;SDS011;58633;49.470;11.004;2022-09-21T08:58:49;16.48;;;9.38;;
6823;SDS011;58633;49.470;11.004;2022-09-21T09:01:29;17.80;;;10.70;;
6823;SDS011;58633;49.470;11.004;2022-09-21T09:04:24;18.48;;;10.48;;
6823;SDS011;58633;49.470;11.004;2022-09-21T09:15:59;16.67;;;9.85;;
6823;SDS011;58633;49.470;11.004;2022-09-21T09:18:43;19.00;;;10.48;;
6823;SDS011;58633;49.470;11.004;2022-09-21T09:21:17;16.65;;;9.88;;
6823;SDS011;58633;49.470;11.004;2022-09-21T09:24:08;15.90;;;9.63;;
6823;SDS011;58633;49.470;11.004;2022-09-21T09:26:40;17.63;;;10.15;;
6823;SDS011;58633;49.470;11.004;2022-09-21T09:29:28;16.70;;;9.57;;
6823;SDS011;58633;49.470;11.004;2022-09-21T09:32:09;14.65;;;9.68;;
6823;SDS011;58633;49.470;11.004;2022-09-21T09:34:42;15.70;;;10.10;;
6823;SDS011;58633;49.470;11.004;2022-09-21T09:37:17;14.68;;;9.07;;
6823;SDS011;58633;49.470;11.004;2022-09-21T09:39:50;11.85;;;8.50;;
6823;SDS011;58633;49.470;11.004;2022-09-21T09:42:23;14.90;;;9.32;;
6823;SDS011;58633;49.470;11.004;2022-09-21T09:45:35;15.70;;;10.20;;
6823;SDS011;58633;49.470;11.004;2022-09-21T09:51:11;12.88;;;8.93;;
6823;SDS011;58633;49.470;11.004;2022-09-21T09:53:37;12.35;;;8.90;;
6823;SDS011;58633;49.470;11.004;2022-09-21T09:56:04;12.98;;;8.98;;
6823;SDS011;58633;49.470;11.004;2022-09-21T09:58:38;11.25;;;8.25;;
6823;SDS011;58633;49.470;11.004;2022-09-21T10:01:06;14.80;;;8.85;;
6823;SDS011;58633;49.470;11.004;2022-09-21T10:03:31;10.90;;;7.90;;
6823;SDS011;58633;49.470;11.004;2022-09-21T10:05:57;11.13;;;8.30;;
6823;SDS011;58633;49.470;11.004;2022-09-21T10:10:52;10.48;;;7.10;;
6823;SDS011;58633;49.470;11.004;2022-09-21T10:13:26;12.98;;;8.10;;
6823;SDS011;58633;49.470;11.004;2022-09-21T10:15:56;9.25;;;7.22;;
6823;SDS011;58633;49.470;11.004;2022-09-21T10:18:37;9.70;;;7.40;;
6823;SDS011;58633;49.470;11.004;2022-09-21T10:21:16;10.60;;;7.18;;
6823;SDS011;58633;49.470;11.004;2022-09-21T10:23:47;10.55;;;8.07;;
6823;SDS011;58633;49.470;11.004;2022-09-21T10:26:17;9.82;;;7.90;;
6823;SDS011;58633;49.470;11.004;2022-09-21T10:28:58;11.98;;;6.90;;
6823;SDS011;58633;49.470;11.004;2022-09-21T10:31:25;8.82;;;7.03;;
6823;SDS011;58633;49.470;11.004;2022-09-21T10:33:53;9.10;;;6.50;;
6823;SDS011;58633;49.470;11.004;2022-09-21T10:36:32;10.43;;;6.22;;
6823;SDS011;58633;49.470;11.004;2022-09-21T10:44:37;7.95;;;6.10;;
6823;SDS011;58633;49.470;11.004;2022-09-21T10:47:15;7.57;;;5.93;;
6823;SDS011;58633;49.470;11.004;2022-09-21T10:49:46;6.75;;;5.40;;
6823;SDS011;58633;49.470;11.004;2022-09-21T10:52:17;6.82;;;5.10;;
6823;SDS011;58633;49.470;11.004;2022-09-21T10:54:47;8.60;;;5.18;;
6823;SDS011;58633;49.470;11.004;2022-09-21T10:57:16;5.95;;;5.15;;
6823;SDS011;58633;49.470;11.004;2022-09-21T10:59:44;6.80;;;4.72;;
6823;SDS011;58633;49.470;11.004;2022-09-21T11:05:19;5.18;;;4.13;;
6823;SDS011;58633;49.470;11.004;2022-09-21T11:10:38;5.05;;;3.80;;
6823;SDS011;58633;49.470;11.004;2022-09-21T11:16:03;4.72;;;3.20;;
6823;SDS011;58633;49.470;11.004;2022-09-21T11:18:44;3.88;;;2.50;;
6823;SDS011;58633;49.470;11.004;2022-09-21T11:24:30;3.97;;;2.83;;
6823;SDS011;58633;49.470;11.004;2022-09-21T11:27:26;3.13;;;2.20;;
6823;SDS011;58633;49.470;11.004;2022-09-21T11:30:03;2.15;;;2.03;;
6823;SDS011;58633;49.470;11.004;2022-09-21T11:43:19;1.25;;;1.15;;
6823;SDS011;58633;49.470;11.004;2022-09-21T11:49:14;2.00;;;1.27;;
6823;SDS011;58633;49.470;11.004;2022-09-21T11:55:15;2.03;;;1.70;;
6823;SDS011;58633;49.470;11.004;2022-09-21T11:58:03;2.22;;;1.50;;
6823;SDS011;58633;49.470;11.004;2022-09-21T12:01:11;1.60;;;1.50;;
6823;SDS011;58633;49.470;11.004;2022-09-21T12:10:00;1.92;;;1.65;;
6823;SDS011;58633;49.470;11.004;2022-09-21T12:20:57;3.00;;;1.70;;
6823;SDS011;58633;49.470;11.004;2022-09-21T12:26:21;1.17;;;1.17;;
6823;SDS011;58633;49.470;11.004;2022-09-21T12:28:56;1.20;;;1.10;;
6823;SDS011;58633;49.470;11.004;2022-09-21T12:31:29;1.38;;;1.20;;
6823;SDS011;58633;49.470;11.004;2022-09-21T12:34:18;1.30;;;1.20;;
6823;SDS011;58633;49.470;11.004;2022-09-21T12:36:58;1.80;;;1.05;;
6823;SDS011;58633;49.470;11.004;2022-09-21T12:39:25;1.13;;;1.10;;
6823;SDS011;58633;49.470;11.004;2022-09-21T12:42:01;2.00;;;0.93;;
6823;SDS011;58633;49.470;11.004;2022-09-21T12:44:31;1.70;;;1.55;;
6823;SDS011;58633;49.470;11.004;2022-09-21T12:47:15;1.42;;;1.30;;
6823;SDS011;58633;49.470;11.004;2022-09-21T12:50:10;1.63;;;1.50;;
6823;SDS011;58633;49.470;11.004;2022-09-21T12:52:55;1.25;;;1.15;;
6823;SDS011;58633;49.470;11.004;2022-09-21T12:55:30;2.03;;;1.40;;
6823;SDS011;58633;49.470;11.004;2022-09-21T13:00:48;1.33;;;1.20;;
6823;SDS011;58633;49.470;11.004;2022-09-21T13:03:20;1.00;;;1.00;;
6823;SDS011;58633;49.470;11.004;2022-09-21T13:06:14;1.10;;;1.00;;
6823;SDS011;58633;49.470;11.004;2022-09-21T13:08:46;1.65;;;1.10;;
6823;SDS011;58633;49.470;11.004;2022-09-21T13:11:13;1.48;;;0.93;;
6823;SDS011;58633;49.470;11.004;2022-09-21T13:13:46;5.57;;;1.10;;
6823;SDS011;58633;49.470;11.004;2022-09-21T13:16:26;1.63;;;1.00;;
6823;SDS011;58633;49.470;11.004;2022-09-21T13:18:58;1.80;;;1.00;;
6823;SDS011;58633;49.470;11.004;2022-09-21T13:21:30;1.10;;;1.00;;
6823;SDS011;58633;49.470;11.004;2022-09-21T13:23:58;0.80;;;0.80;;
6823;SDS011;58633;49.470;11.004;2022-09-21T13:26:32;1.65;;;0.80;;
6823;SDS011;58633;49.470;11.004;2022-09-21T13:29:04;1.17;;;0.80;;
6823;SDS011;58633;49.470;11.004;2022-09-21T13:31:58;1.00;;;1.00;;
6823;SDS011;58633;49.470;11.004;2022-09-21T13:34:45;1.08;;;0.98;;
6823;SDS011;58633;49.470;11.004;2022-09-21T13:39:43;1.70;;;1.23;;
6823;SDS011;58633;49.470;11.004;2022-09-21T13:45:00;1.30;;;1.20;;
6823;SDS011;58633;49.470;11.004;2022-09-21T13:47:29;1.38;;;0.90;;
6823;SDS011;58633;49.470;11.004;2022-09-21T13:49:57;3.80;;;1.10;;
6823;SDS011;58633;49.470;11.004;2022-09-21T13:52:47;2.38;;;1.10;;
6823;SDS011;58633;49.470;11.004;2022-09-21T13:57:55;1.65;;;1.00;;
6823;SDS011;58633;49.470;11.004;2022-09-21T14:00:35;1.05;;;0.98;;
6823;SDS011;58633;49.470;11.004;2022-09-21T14:05:54;2.78;;;1.10;;
6823;SDS011;58633;49.470;11.004;2022-09-21T14:08:31;1.05;;;0.98;;
6823;SDS011;58633;49.470;11.004;2022-09-21T14:11:09;1.42;;;0.90;;
6823;SDS011;58633;49.470;11.004;2022-09-21T14:13:43;1.27;;;0.80;;
6823;SDS011;58633;49.470;11.004;2022-09-21T14:16:25;1.05;;;0.90;;
6823;SDS011;58633;49.470;11.004;2022-09-21T14:19:02;1.67;;;1.00;;
6823;SDS011;58633;49.470;11.004;2022-09-21T14:27:01;0.70;;;0.70;;
6823;SDS011;58633;49.470;11.004;2022-09-21T14:29:53;1.13;;;0.82;;
6823;SDS011;58633;49.470;11.004;2022-09-21T14:32:29;1.30;;;0.77;;
6823;SDS011;58633;49.470;11.004;2022-09-21T14:34:59;0.80;;;0.80;;
6823;SDS011;58633;49.470;11.004;2022-09-21T14:37:36;1.58;;;0.75;;
6823;SDS011;58633;49.470;11.004;2022-09-21T14:40:22;1.25;;;1.15;;
6823;SDS011;58633;49.470;11.004;2022-09-21T14:42:53;1.48;;;0.80;;
6823;SDS011;58633;49.470;11.004;2022-09-21T14:51:19;0.70;;;0.70;;
6823;SDS011;58633;49.470;11.004;2022-09-21T15:00:07;1.15;;;0.60;;
6823;SDS011;58633;49.470;11.004;2022-09-21T15:02:38;0.85;;;0.73;;
6823;SDS011;58633;49.470;11.004;2022-09-21T15:05:23;1.17;;;0.70;;
6823;SDS011;58633;49.470;11.004;2022-09-21T15:13:41;1.70;;;1.42;;
6823;SDS011;58633;49.470;11.004;2022-09-21T15:21:39;2.08;;;1.10;;
6823;SDS011;58633;49.470;11.004;2022-09-21T15:24:26;2.55;;;1.10;;
6823;SDS011;58633;49.470;11.004;2022-09-21T15:27:00;1.40;;;1.30;;
6823;SDS011;58633;49.470;11.004;2022-09-21T15:29:30;2.25;;;1.50;;
6823;SDS011;58633;49.470;11.004;2022-09-21T15:31:57;1.20;;;1.10;;
6823;SDS011;58633;49.470;11.004;2022-09-21T15:34:24;1.05;;;1.00;;
6823;SDS011;58633;49.470;11.004;2022-09-21T15:36:50;1.20;;;1.10;;
6823;SDS011;58633;49.470;11.004;2022-09-21T15:39:34;4.68;;;1.30;;
6823;SDS011;58633;49.470;11.004;2022-09-21T15:42:12;1.35;;;1.10;;
6823;SDS011;58633;49.470;11.004;2022-09-21T15:44:41;1.25;;;1.00;;
6823;SDS011;58633;49.470;11.004;2022-09-21T15:47:12;3.78;;;1.10;;
6823;SDS011;58633;49.470;11.004;2022-09-21T15:49:40;1.58;;;1.40;;
6823;SDS011;58633;49.470;11.004;2022-09-21T15:52:10;1.85;;;1.20;;
6823;SDS011;58633;49.470;11.004;2022-09-21T15:54:57;1.17;;;1.00;;
6823;SDS011;58633;49.470;11.004;2022-09-21T15:57:27;2.25;;;1.20;;
6823;SDS011;58633;49.470;11.004;2022-09-21T15:59:57;2.65;;;1.30;;
6823;SDS011;58633;49.470;11.004;2022-09-21T16:02:24;0.98;;;0.98;;
6823;SDS011;58633;49.470;11.004;2022-09-21T16:04:51;1.48;;;0.90;;
6823;SDS011;58633;49.470;11.004;2022-09-21T16:09:56;1.00;;;1.00;;
6823;SDS011;58633;49.470;11.004;2022-09-21T16:14:52;1.05;;;1.00;;
6823;SDS011;58633;49.470;11.004;2022-09-21T16:17:27;0.80;;;0.80;;
6823;SDS011;58633;49.470;11.004;2022-09-21T16:22:29;1.23;;;0.90;;
6823;SDS011;58633;49.470;11.004;2022-09-21T16:25:01;1.08;;;1.00;;
6823;SDS011;58633;49.470;11.004;2022-09-21T16:27:37;0.90;;;0.90;;
6823;SDS011;58633;49.470;11.004;2022-09-21T16:33:31;1.40;;;0.90;;
6823;SDS011;58633;49.470;11.004;2022-09-21T16:35:49;1.38;;;1.00;;
6823;SDS011;58633;49.470;11.004;2022-09-21T16:38:15;2.25;;;0.80;;
6823;SDS011;58633;49.470;11.004;2022-09-21T16:40:41;0.82;;;0.82;;
6823;SDS011;58633;49.470;11.004;2022-09-21T16:43:08;1.95;;;0.90;;
6823;SDS011;58633;49.470;11.004;2022-09-21T16:45:34;0.82;;;0.82;;
6823;SDS011;58633;49.470;11.004;2022-09-21T16:48:02;2.40;;;1.20;;
6823;SDS011;58633;49.470;11.004;2022-09-21T16:50:31;1.58;;;1.08;;
6823;SDS011;58633;49.470;11.004;2022-09-21T16:52:57;1.48;;;1.10;;
6823;SDS011;58633;49.470;11.004;2022-09-21T16:55:22;0.90;;;0.90;;
6823;SDS011;58633;49.470;11.004;2022-09-21T16:57:48;1.98;;;0.98;;
6823;SDS011;58633;49.470;11.004;2022-09-21T17:00:14;2.13;;;1.05;;
6823;SDS011;58633;49.470;11.004;2022-09-21T17:02:44;0.98;;;0.90;;
6823;SDS011;58633;49.470;11.004;2022-09-21T17:05:10;1.88;;;1.20;;
6823;SDS011;58633;49.470;11.004;2022-09-21T17:07:42;6.45;;;2.15;;
6823;SDS011;58633;49.470;11.004;2022-09-21T17:10:19;3.63;;;1.50;;
6823;SDS011;58633;49.470;11.004;2022-09-21T17:12:51;3.40;;;2.17;;
6823;SDS011;58633;49.470;11.004;2022-09-21T17:15:17;3.85;;;1.95;;
6823;SDS011;58633;49.470;11.004;2022-09-21T17:17:44;2.55;;;1.45;;
6823;SDS011;58633;49.470;11.004;2022-09-21T17:20:15;4.32;;;1.70;;
6823;SDS011;58633;49.470;11.004;2022-09-21T17:22:44;1.45;;;1.35;;
6823;SDS011;58633;49.470;11.004;2022-09-21T17:25:10;2.92;;;1.10;;
6823;SDS011;58633;49.470;11.004;2022-09-21T17:27:35;1.40;;;1.30;;
6823;SDS011;58633;49.470;11.004;2022-09-21T17:30:04;2.08;;;1.50;;
6823;SDS011;58633;49.470;11.004;2022-09-21T17:32:35;1.58;;;1.45;;
6823;SDS011;58633;49.470;11.004;2022-09-21T17:35:25;4.88;;;1.65;;
6823;SDS011;58633;49.470;11.004;2022-09-21T17:37:57;2.83;;;1.90;;
6823;SDS011;58633;49.470;11.004;2022-09-21T17:40:23;5.18;;;2.30;;
6823;SDS011;58633;49.470;11.004;2022-09-21T17:42:50;8.32;;;4.22;;
6823;SDS011;58633;49.470;11.004;2022-09-21T17:47:43;4.57;;;2.20;;
6823;SDS011;58633;49.470;11.004;2022-09-21T17:52:41;4.43;;;1.90;;
6823;SDS011;58633;49.470;11.004;2022-09-21T17:55:26;3.35;;;1.85;;